Time;durP1;ratioP1;P1;durP2;ratioP2;P2;SDS_P1;SDS_P2;PMS_P1;PMS_P2;Temp;Humidity;BMP_temperature;BMP_pressure;BME280_temperature;BME280_humidity;BME280_pressure;Samples;Min_cycle;Max_cycle;Signal;HPM_P1;HPM_P2
2021/08/29 00:00:32;;;;;;;12.00;9.90;;;;;;;25.21;100.00;100598.69;5031530;28;20174;-75
2021/08/29 00:02:57;;;;;;;13.30;9.90;;;;;;;25.14;100.00;100598.66;5031317;28;20177;-75
2021/08/29 00:05:22;;;;;;;13.50;10.57;;;;;;;25.07;100.00;100595.94;5031018;28;20173;-75
2021/08/29 00:07:48;;;;;;;21.37;10.97;;;;;;;25.05;100.00;100587.25;5031207;28;20181;-75
2021/08/29 00:10:13;;;;;;;13.07;9.53;;;;;;;25.04;100.00;100598.22;5031234;28;20177;-75
2021/08/29 00:12:40;;;;;;;16.63;10.70;;;;;;;25.06;100.00;100598.84;5030956;28;20705;-75
2021/08/29 00:15:06;;;;;;;14.20;10.27;;;;;;;25.14;100.00;100588.75;5031134;28;20181;-75
2021/08/29 00:17:31;;;;;;;19.53;10.03;;;;;;;25.08;100.00;100592.22;5030958;28;20448;-74
2021/08/29 00:19:57;;;;;;;13.60;9.60;;;;;;;25.06;100.00;100588.91;5031194;28;20783;-75
2021/08/29 00:22:24;;;;;;;13.77;10.40;;;;;;;25.01;100.00;100585.97;5030656;28;20233;-75
2021/08/29 00:24:49;;;;;;;11.03;9.83;;;;;;;24.98;100.00;100586.38;5030978;28;20173;-75
2021/08/29 00:27:15;;;;;;;12.90;10.27;;;;;;;24.99;100.00;100585.34;5030637;28;20409;-75
2021/08/29 00:29:40;;;;;;;12.67;11.37;;;;;;;25.13;100.00;100575.50;5031064;28;20296;-76
2021/08/29 00:32:06;;;;;;;14.60;10.33;;;;;;;25.14;100.00;100583.34;5029958;28;20174;-76
2021/08/29 00:34:31;;;;;;;14.03;9.50;;;;;;;25.26;100.00;100580.94;5018044;28;20188;-74
2021/08/29 00:36:57;;;;;;;12.83;10.03;;;;;;;25.16;100.00;100572.41;5030544;28;20177;-75
2021/08/29 00:39:23;;;;;;;11.73;10.50;;;;;;;25.15;100.00;100574.25;5030357;28;20678;-76
2021/08/29 00:41:48;;;;;;;12.70;10.70;;;;;;;25.14;100.00;100587.91;5030674;28;20176;-76
2021/08/29 00:44:18;;;;;;;14.60;9.53;;;;;;;25.04;100.00;100593.66;5030386;28;20707;-75
2021/08/29 00:46:46;;;;;;;12.43;10.17;;;;;;;25.04;100.00;100588.28;5030386;28;20634;-75
2021/08/29 00:49:14;;;;;;;14.90;11.07;;;;;;;25.06;100.00;100594.28;5030962;28;20413;-76
2021/08/29 00:51:40;;;;;;;15.10;11.33;;;;;;;25.00;100.00;100587.00;5030759;28;20440;-73
2021/08/29 00:54:05;;;;;;;13.97;10.10;;;;;;;24.98;100.00;100574.78;5030538;28;20471;-75
2021/08/29 00:56:31;;;;;;;12.50;9.63;;;;;;;24.95;100.00;100576.03;5030541;28;20181;-75
2021/08/29 00:58:57;;;;;;;14.70;10.43;;;;;;;24.94;100.00;100576.19;5030580;28;20169;-75
2021/08/29 01:01:28;;;;;;;15.30;9.67;;;;;;;24.89;100.00;100576.81;5030152;28;20174;-75
2021/08/29 01:04:00;;;;;;;11.90;10.10;;;;;;;24.90;100.00;100581.16;5030749;28;20181;-74
2021/08/29 01:06:41;;;;;;;12.67;9.63;;;;;;;24.98;100.00;100582.84;5030483;28;20404;-75
2021/08/29 01:09:10;;;;;;;13.73;11.23;;;;;;;25.06;100.00;100585.41;5030311;28;20499;-75
2021/08/29 01:11:39;;;;;;;13.50;10.70;;;;;;;25.09;100.00;100580.47;5030193;28;20436;-75
2021/08/29 01:14:10;;;;;;;13.60;10.43;;;;;;;25.18;100.00;100573.03;5030363;28;20456;-75
2021/08/29 01:16:37;;;;;;;17.50;10.67;;;;;;;25.19;100.00;100577.38;5030387;28;20393;-75
2021/08/29 01:19:16;;;;;;;17.50;11.07;;;;;;;25.18;100.00;100576.56;5016297;28;20397;-73
2021/08/29 01:21:44;;;;;;;14.27;11.77;;;;;;;25.12;100.00;100577.34;5030169;28;20460;-74
2021/08/29 01:24:19;;;;;;;14.33;10.90;;;;;;;25.17;100.00;100582.16;5029550;28;20444;-74
2021/08/29 01:26:54;;;;;;;13.97;11.10;;;;;;;25.16;100.00;100577.78;5030122;28;20446;-75
2021/08/29 01:29:24;;;;;;;16.77;10.90;;;;;;;25.11;100.00;100581.09;5030075;28;20419;-75
2021/08/29 01:31:50;;;;;;;12.40;9.80;;;;;;;25.12;100.00;100582.75;5030074;28;20417;-74
2021/08/29 01:34:18;;;;;;;13.17;10.17;;;;;;;25.11;100.00;100573.00;5029778;28;20472;-76
2021/08/29 01:36:48;;;;;;;13.23;10.47;;;;;;;25.16;100.00;100570.56;5030302;28;20170;-75
2021/08/29 01:39:13;;;;;;;12.20;10.77;;;;;;;25.22;100.00;100563.53;5029722;28;20404;-73
2021/08/29 01:41:44;;;;;;;13.80;10.13;;;;;;;25.13;100.00;100562.88;5030166;28;20416;-75
2021/08/29 01:44:10;;;;;;;12.23;10.93;;;;;;;25.10;100.00;100555.22;5030140;28;20632;-75
2021/08/29 01:46:36;;;;;;;15.73;10.73;;;;;;;25.12;100.00;100547.78;5011924;28;20494;-75
2021/08/29 01:49:04;;;;;;;15.83;11.83;;;;;;;25.02;100.00;100550.00;5029968;28;20470;-75
2021/08/29 01:51:29;;;;;;;12.47;10.73;;;;;;;25.06;100.00;100545.88;5030276;28;20440;-76
2021/08/29 01:53:56;;;;;;;13.50;10.97;;;;;;;24.99;100.00;100545.00;5033133;28;20576;-75
2021/08/29 01:56:21;;;;;;;14.27;10.83;;;;;;;25.09;100.00;100524.00;5031060;28;20628;-74
2021/08/29 01:58:47;;;;;;;17.60;10.80;;;;;;;25.02;100.00;100523.09;5033491;28;20420;-76
2021/08/29 02:01:13;;;;;;;13.60;10.43;;;;;;;24.96;100.00;100533.84;5033294;28;20231;-76
2021/08/29 02:03:41;;;;;;;14.27;10.80;;;;;;;24.95;100.00;100521.44;5033487;28;20677;-75
2021/08/29 02:06:12;;;;;;;16.73;10.67;;;;;;;24.90;100.00;100516.66;5033475;28;20471;-74
2021/08/29 02:08:41;;;;;;;14.73;10.23;;;;;;;24.82;100.00;100520.34;5033428;28;20440;-74
2021/08/29 02:11:08;;;;;;;15.50;11.60;;;;;;;24.78;100.00;100511.00;5033769;28;20416;-73
2021/08/29 02:13:40;;;;;;;12.63;10.70;;;;;;;24.70;100.00;100515.72;5033785;28;20455;-74
2021/08/29 02:16:10;;;;;;;34.40;13.80;;;;;;;24.63;100.00;100515.69;5033183;28;20404;-77
2021/08/29 02:18:37;;;;;;;13.77;11.67;;;;;;;24.66;100.00;100511.81;5015488;28;20420;-75
2021/08/29 02:21:04;;;;;;;16.90;10.77;;;;;;;24.61;100.00;100510.53;5032961;28;20448;-75
2021/08/29 02:23:29;;;;;;;14.00;10.10;;;;;;;24.62;100.00;100505.97;5032987;28;20408;-76
2021/08/29 02:25:56;;;;;;;15.13;9.37;;;;;;;24.60;100.00;100503.50;5033151;28;20408;-74
2021/08/29 02:28:23;;;;;;;13.23;10.63;;;;;;;24.50;100.00;100502.22;5033266;28;20661;-74
2021/08/29 02:30:49;;;;;;;14.23;10.80;;;;;;;24.44;100.00;100508.38;5032703;28;20408;-75
2021/08/29 02:33:15;;;;;;;15.57;10.90;;;;;;;24.38;100.00;100506.50;5032816;28;20987;-74
2021/08/29 02:35:42;;;;;;;15.90;10.40;;;;;;;24.40;100.00;100507.13;5032879;28;20440;-75
2021/08/29 02:38:08;;;;;;;12.43;9.73;;;;;;;24.39;100.00;100510.81;5032805;28;20630;-74
2021/08/29 02:40:44;;;;;;;14.40;10.83;;;;;;;24.43;100.00;100507.56;5032967;28;20429;-74
2021/08/29 02:43:12;;;;;;;16.37;10.40;;;;;;;24.35;100.00;100500.50;5032513;28;20208;-73
2021/08/29 02:45:40;;;;;;;13.10;10.70;;;;;;;24.38;100.00;100503.81;5032426;28;20415;-75
2021/08/29 02:48:06;;;;;;;12.43;10.73;;;;;;;24.33;100.00;100505.25;5032617;28;20415;-75
2021/08/29 02:50:32;;;;;;;13.97;10.73;;;;;;;24.22;100.00;100505.75;5033123;28;20429;-75
2021/08/29 02:52:58;;;;;;;16.90;10.97;;;;;;;24.16;100.00;100506.53;5032330;28;20201;-74
2021/08/29 02:55:25;;;;;;;14.20;10.90;;;;;;;24.09;100.00;100503.78;5032552;28;20412;-76
2021/08/29 02:58:04;;;;;;;17.33;11.90;;;;;;;24.12;100.00;100499.09;5032529;28;20409;-75
2021/08/29 03:00:29;;;;;;;15.50;11.47;;;;;;;24.01;100.00;100489.69;5032774;28;20462;-76
2021/08/29 03:02:55;;;;;;;15.20;11.20;;;;;;;23.97;100.00;100496.50;5032424;28;20838;-76
2021/08/29 03:05:21;;;;;;;17.70;11.53;;;;;;;23.90;100.00;100499.13;5032254;28;20166;-75
2021/08/29 03:07:47;;;;;;;14.43;11.00;;;;;;;23.89;100.00;100505.53;5032417;28;20181;-76
2021/08/29 03:10:13;;;;;;;12.80;10.67;;;;;;;23.91;100.00;100500.78;5032057;28;20181;-74
2021/08/29 03:12:42;;;;;;;14.30;10.90;;;;;;;23.90;100.00;100501.81;5031953;28;20221;-76
2021/08/29 03:15:08;;;;;;;17.93;11.43;;;;;;;23.88;100.00;100503.03;5032259;28;20417;-75
2021/08/29 03:17:34;;;;;;;14.90;11.07;;;;;;;23.87;100.00;100499.50;5031978;28;20459;-75
2021/08/29 03:20:01;;;;;;;16.83;11.77;;;;;;;23.91;100.00;100495.44;5031793;28;20730;-76
2021/08/29 03:22:27;;;;;;;16.03;11.37;;;;;;;23.91;100.00;100498.09;5031708;28;20220;-75
2021/08/29 03:24:53;;;;;;;13.60;10.87;;;;;;;23.97;100.00;100493.81;5032174;28;20852;-75
2021/08/29 03:27:19;;;;;;;14.73;10.57;;;;;;;23.93;100.00;100492.53;5031845;28;20882;-75
2021/08/29 03:29:44;;;;;;;13.80;10.93;;;;;;;23.97;100.00;100497.34;5031822;28;20920;-74
2021/08/29 03:32:10;;;;;;;13.23;10.77;;;;;;;23.93;100.00;100500.59;5031678;28;20185;-75
2021/08/29 03:34:36;;;;;;;16.70;10.47;;;;;;;23.92;100.00;100502.44;5031624;28;20176;-75
2021/08/29 03:37:03;;;;;;;15.90;10.80;;;;;;;24.03;100.00;100493.88;5031907;28;20173;-75
2021/08/29 03:39:29;;;;;;;14.57;10.97;;;;;;;24.03;100.00;100496.56;5031353;28;20915;-75
2021/08/29 03:41:58;;;;;;;15.43;10.60;;;;;;;24.09;100.00;100500.28;5031672;28;20494;-76
2021/08/29 03:44:25;;;;;;;13.10;10.60;;;;;;;24.02;100.00;100502.91;5031373;28;20414;-74
2021/08/29 03:46:51;;;;;;;14.20;11.13;;;;;;;24.03;100.00;100503.75;5031497;28;20440;-75
2021/08/29 03:49:17;;;;;;;14.53;10.60;;;;;;;24.01;100.00;100501.28;5031550;28;20408;-79
2021/08/29 03:51:45;;;;;;;18.60;10.90;;;;;;;24.01;100.00;100495.06;5031755;28;20527;-74
2021/08/29 03:54:13;;;;;;;13.13;10.23;;;;;;;23.93;100.00;100503.28;5031307;28;20209;-76
2021/08/29 03:56:39;;;;;;;12.80;10.43;;;;;;;23.90;100.00;100504.50;5031727;28;20778;-75
2021/08/29 03:59:05;;;;;;;12.87;10.47;;;;;;;23.86;100.00;100503.22;5031602;28;20487;-75
2021/08/29 04:01:30;;;;;;;14.60;10.37;;;;;;;23.96;100.00;100502.91;5031748;28;20497;-75
2021/08/29 04:03:56;;;;;;;13.43;10.40;;;;;;;24.02;100.00;100505.59;5031047;28;20528;-75
2021/08/29 04:06:24;;;;;;;15.97;10.80;;;;;;;24.01;100.00;100511.19;5031294;28;20256;-75
2021/08/29 04:08:53;;;;;;;12.10;10.13;;;;;;;24.05;100.00;100513.28;5031168;28;20181;-75
2021/08/29 04:11:29;;;;;;;13.67;11.20;;;;;;;24.02;100.00;100513.66;5013610;28;20448;-73
2021/08/29 04:13:56;;;;;;;17.07;10.67;;;;;;;24.04;100.00;100505.44;5027414;28;20583;-75
2021/08/29 04:16:22;;;;;;;15.10;10.90;;;;;;;24.07;100.00;100497.81;5020461;28;20411;-74
2021/08/29 04:18:48;;;;;;;15.00;11.50;;;;;;;24.06;100.00;100498.84;5030963;28;20416;-75
2021/08/29 04:21:16;;;;;;;17.63;11.13;;;;;;;24.11;100.00;100500.94;5030731;28;20456;-74
2021/08/29 04:23:42;;;;;;;16.33;11.93;;;;;;;24.11;100.00;100498.25;5031001;28;20408;-75
2021/08/29 04:26:08;;;;;;;14.90;11.77;;;;;;;24.18;100.00;100496.44;5030572;28;20423;-74
2021/08/29 04:28:35;;;;;;;13.80;11.07;;;;;;;24.23;100.00;100499.34;5030730;28;20495;-74
2021/08/29 04:31:04;;;;;;;15.27;12.07;;;;;;;24.26;100.00;100504.34;5030839;28;20408;-75
2021/08/29 04:33:30;;;;;;;17.27;11.40;;;;;;;24.33;100.00;100501.69;5030817;28;20458;-75
2021/08/29 04:35:55;;;;;;;15.27;11.30;;;;;;;24.30;100.00;100500.22;5031113;28;20491;-72
2021/08/29 04:38:21;;;;;;;16.73;11.30;;;;;;;24.35;100.00;100503.19;5030729;28;20181;-75
2021/08/29 04:40:46;;;;;;;14.20;11.00;;;;;;;24.47;100.00;100500.75;5030587;28;20665;-75
2021/08/29 04:43:12;;;;;;;12.80;10.27;;;;;;;24.44;100.00;100493.09;5030628;28;20247;-75
2021/08/29 04:45:37;;;;;;;14.17;11.57;;;;;;;24.51;100.00;100490.44;5030467;28;20200;-73
2021/08/29 04:48:03;;;;;;;12.30;11.00;;;;;;;24.58;100.00;100481.38;5030649;28;20541;-74
2021/08/29 04:50:30;;;;;;;13.93;12.43;;;;;;;24.62;100.00;100489.84;5030335;28;20173;-74
2021/08/29 04:52:56;;;;;;;12.80;10.97;;;;;;;24.68;100.00;100490.94;5030213;28;20204;-75
2021/08/29 04:55:21;;;;;;;14.00;11.00;;;;;;;24.71;100.00;100487.81;5030456;28;20777;-74
2021/08/29 04:57:47;;;;;;;13.20;10.70;;;;;;;24.78;100.00;100486.00;5030279;28;20803;-75
2021/08/29 05:00:13;;;;;;;13.53;10.70;;;;;;;24.84;100.00;100494.09;5030664;28;20162;-75
2021/08/29 05:02:38;;;;;;;13.60;10.50;;;;;;;24.86;100.00;100485.81;5030352;28;20208;-74
2021/08/29 05:05:05;;;;;;;15.10;11.00;;;;;;;24.89;100.00;100482.72;5029845;28;20412;-75
2021/08/29 05:07:30;;;;;;;13.73;10.40;;;;;;;24.89;100.00;100483.56;5009061;28;20186;-74
2021/08/29 05:09:56;;;;;;;12.70;9.63;;;;;;;24.96;100.00;100475.50;5022807;28;20423;-74
2021/08/29 05:12:21;;;;;;;18.50;10.50;;;;;;;25.01;100.00;100473.03;5030104;28;20166;-74
2021/08/29 05:14:47;;;;;;;13.33;9.90;;;;;;;25.14;100.00;100472.25;5030419;28;20178;-73
2021/08/29 05:17:12;;;;;;;13.43;9.70;;;;;;;25.23;100.00;100473.72;5030248;28;20169;-74
2021/08/29 05:19:37;;;;;;;10.87;9.40;;;;;;;25.24;100.00;100469.16;5030310;28;20169;-74
2021/08/29 05:22:03;;;;;;;14.97;10.40;;;;;;;25.31;100.00;100459.25;5029790;28;20248;-74
2021/08/29 05:24:29;;;;;;;12.80;10.43;;;;;;;25.53;100.00;100462.56;5029946;28;20174;-73
2021/08/29 05:26:54;;;;;;;11.43;9.40;;;;;;;25.58;100.00;100460.91;5031239;28;20642;-76
2021/08/29 05:29:20;;;;;;;12.83;9.77;;;;;;;25.51;100.00;100456.56;5034143;28;20165;-75
2021/08/29 05:31:45;;;;;;;12.43;10.13;;;;;;;25.51;100.00;100446.63;5034045;28;20630;-76
2021/08/29 05:34:11;;;;;;;15.63;9.47;;;;;;;25.61;100.00;100448.91;5033569;28;20275;-75
2021/08/29 05:36:36;;;;;;;16.13;10.07;;;;;;;25.68;100.00;100450.56;5033951;28;20189;-74
2021/08/29 05:39:02;;;;;;;12.77;9.63;;;;;;;25.74;100.00;100440.84;5033657;28;20178;-75
2021/08/29 05:41:27;;;;;;;11.53;8.93;;;;;;;25.77;100.00;100442.28;5033811;28;20181;-75
2021/08/29 05:43:53;;;;;;;14.07;10.30;;;;;;;25.86;100.00;100438.38;5033539;28;20548;-75
2021/08/29 05:46:18;;;;;;;14.47;10.27;;;;;;;25.85;100.00;100437.53;5033853;28;20204;-74
2021/08/29 05:48:45;;;;;;;12.77;10.27;;;;;;;25.96;100.00;100446.81;5033860;28;20224;-75
2021/08/29 05:51:11;;;;;;;12.97;10.40;;;;;;;26.21;100.00;100442.41;5033630;28;20213;-76
2021/08/29 05:53:36;;;;;;;11.67;9.63;;;;;;;26.44;100.00;100439.25;5033517;28;20523;-76
2021/08/29 05:56:01;;;;;;;11.67;9.37;;;;;;;26.58;100.00;100440.00;5033597;28;20184;-76
2021/08/29 05:58:27;;;;;;;13.37;10.53;;;;;;;26.68;100.00;100439.56;5033297;28;20552;-76
2021/08/29 06:00:54;;;;;;;12.10;9.60;;;;;;;26.80;100.00;100446.75;5033335;28;20303;-75
2021/08/29 06:03:19;;;;;;;11.77;8.90;;;;;;;26.86;100.00;100439.66;5031684;28;20174;-76
2021/08/29 06:05:45;;;;;;;15.50;10.57;;;;;;;26.89;100.00;100435.69;5033268;28;20412;-76
2021/08/29 06:08:10;;;;;;;15.37;9.90;;;;;;;27.02;100.00;100431.03;5032923;28;20638;-75
2021/08/29 06:10:36;;;;;;;13.97;9.23;;;;;;;26.99;100.00;100436.88;5033117;28;20173;-73
2021/08/29 06:13:01;;;;;;;13.80;9.00;;;;;;;27.01;100.00;100428.56;5032968;28;20725;-75
2021/08/29 06:15:27;;;;;;;11.70;8.87;;;;;;;27.04;100.00;100428.16;5019117;28;20560;-75
2021/08/29 06:17:52;;;;;;;15.03;7.83;;;;;;;26.99;100.00;100423.41;5033215;28;20541;-72
2021/08/29 06:20:18;;;;;;;11.50;8.90;;;;;;;26.86;100.00;100425.34;5032522;28;20654;-74
2021/08/29 06:22:43;;;;;;;11.03;8.10;;;;;;;26.73;100.00;100426.25;5032745;28;20243;-74
2021/08/29 06:25:09;;;;;;;10.70;7.87;;;;;;;26.75;100.00;100424.16;5032762;28;20188;-75
2021/08/29 06:27:34;;;;;;;12.87;8.93;;;;;;;26.82;100.00;100423.06;5032703;28;20217;-75
2021/08/29 06:30:00;;;;;;;11.60;8.27;;;;;;;26.92;100.00;100424.50;5015012;28;20177;-75
2021/08/29 06:32:25;;;;;;;13.13;8.40;;;;;;;26.91;100.00;100417.44;5032572;28;20199;-76
2021/08/29 06:34:51;;;;;;;15.33;9.60;;;;;;;27.04;100.00;100412.78;5032505;28;20247;-75
2021/08/29 06:37:16;;;;;;;11.50;8.90;;;;;;;27.04;100.00;100395.78;5032187;28;20177;-75
2021/08/29 06:39:42;;;;;;;11.67;9.73;;;;;;;27.16;100.00;100398.63;5032599;28;20551;-75
2021/08/29 06:42:07;;;;;;;11.70;9.47;;;;;;;27.49;100.00;100401.84;5032419;28;20201;-74
2021/08/29 06:44:33;;;;;;;11.83;9.97;;;;;;;27.68;100.00;100401.94;5032298;28;20236;-75
2021/08/29 06:46:58;;;;;;;13.10;10.50;;;;;;;27.82;100.00;100398.88;5032344;28;20727;-75
2021/08/29 06:49:23;;;;;;;12.97;9.73;;;;;;;27.94;100.00;100396.22;5032532;28;20248;-75
2021/08/29 06:51:49;;;;;;;10.47;9.23;;;;;;;28.27;100.00;100392.34;5032381;28;20193;-75
2021/08/29 06:54:14;;;;;;;11.43;8.57;;;;;;;27.96;100.00;100396.81;5032364;28;20292;-76
2021/08/29 06:56:40;;;;;;;14.97;9.80;;;;;;;28.27;100.00;100395.03;5032223;28;20260;-75
2021/08/29 06:59:06;;;;;;;17.30;10.67;;;;;;;28.32;100.00;100390.59;5032064;28;20185;-76
2021/08/29 07:01:31;;;;;;;13.30;9.00;;;;;;;28.16;100.00;100396.59;5032475;28;20205;-76
2021/08/29 07:03:57;;;;;;;12.23;10.50;;;;;;;28.31;100.00;100399.78;5032158;28;20201;-73
2021/08/29 07:06:23;;;;;;;9.43;7.80;;;;;;;28.56;100.00;100388.81;5032058;28;20665;-75
2021/08/29 07:08:48;;;;;;;13.43;9.90;;;;;;;28.42;100.00;100390.91;5032205;28;20488;-76
2021/08/29 07:11:14;;;;;;;16.00;10.90;;;;;;;28.50;100.00;100397.06;5014382;28;20316;-75
2021/08/29 07:13:39;;;;;;;15.20;9.27;;;;;;;28.97;100.00;100385.34;5032318;28;20197;-76
2021/08/29 07:16:05;;;;;;;11.10;8.10;;;;;;;29.28;100.00;100389.63;5031987;28;20162;-75
2021/08/29 07:18:30;;;;;;;9.67;7.90;;;;;;;29.51;100.00;100388.84;5032077;28;20174;-75
2021/08/29 07:20:56;;;;;;;9.50;7.73;;;;;;;29.89;100.00;100381.28;5031654;28;20296;-74
2021/08/29 07:23:22;;;;;;;12.00;7.73;;;;;;;29.94;100.00;100378.69;5031757;28;20547;-75
2021/08/29 07:25:47;;;;;;;22.50;9.60;;;;;;;29.88;100.00;100379.63;5031296;28;20630;-75
2021/08/29 07:28:13;;;;;;;11.43;7.57;;;;;;;29.79;100.00;100371.06;5031471;28;20416;-75
2021/08/29 07:30:38;;;;;;;13.07;7.50;;;;;;;29.67;100.00;100378.34;5031304;28;20265;-74
2021/08/29 07:33:04;;;;;;;17.10;10.13;;;;;;;29.78;100.00;100375.66;5031452;28;20194;-75
2021/08/29 07:35:29;;;;;;;12.87;8.60;;;;;;;29.63;100.00;100375.31;5031382;28;20170;-76
2021/08/29 07:37:55;;;;;;;12.13;8.27;;;;;;;29.62;100.00;100386.34;5017744;28;20598;-75
2021/08/29 07:40:20;;;;;;;13.67;8.60;;;;;;;29.42;100.00;100381.28;5031521;28;20653;-75
2021/08/29 07:42:47;;;;;;;10.87;8.07;;;;;;;29.38;100.00;100380.91;5031378;28;20184;-75
2021/08/29 07:45:13;;;;;;;11.77;8.50;;;;;;;29.36;100.00;100374.91;5031457;28;20181;-75
2021/08/29 07:47:39;;;;;;;15.13;9.00;;;;;;;29.38;100.00;100380.91;5012903;28;20448;-75
2021/08/29 07:50:05;;;;;;;22.43;9.57;;;;;;;29.34;100.00;100378.94;5030610;28;20408;-75
2021/08/29 07:52:31;;;;;;;14.13;8.97;;;;;;;29.39;100.00;100382.56;4997022;28;20236;-76
2021/08/29 07:54:56;;;;;;;18.83;10.13;;;;;;;29.26;100.00;100382.81;5031035;28;20409;-74
2021/08/29 07:57:23;;;;;;;13.17;8.80;;;;;;;29.25;100.00;100378.47;5031405;28;20561;-76
2021/08/29 07:59:48;;;;;;;11.13;8.80;;;;;;;29.05;100.00;100391.50;5031274;28;20247;-77
2021/08/29 08:02:16;;;;;;;13.67;9.33;;;;;;;28.91;100.00;100391.69;5030818;28;20409;-75
2021/08/29 08:04:42;;;;;;;13.80;9.73;;;;;;;28.89;100.00;100388.38;5030990;28;20170;-75
2021/08/29 08:07:07;;;;;;;11.50;9.20;;;;;;;28.89;100.00;100387.53;5030620;28;20408;-76
2021/08/29 08:09:33;;;;;;;9.63;8.63;;;;;;;29.22;100.00;100381.63;5030838;28;20439;-75
2021/08/29 08:11:58;;;;;;;11.80;8.47;;;;;;;29.11;100.00;100380.56;5030767;28;20174;-74
2021/08/29 08:14:24;;;;;;;17.33;9.37;;;;;;;29.02;100.00;100382.78;5029338;28;20196;-75
2021/08/29 08:16:49;;;;;;;16.10;8.83;;;;;;;29.08;100.00;100374.78;5030513;28;20173;-75
2021/08/29 08:19:14;;;;;;;10.00;8.17;;;;;;;29.16;100.00;100372.53;5030807;28;20659;-74
2021/08/29 08:21:40;;;;;;;16.37;8.37;;;;;;;29.04;100.00;100362.78;5030574;28;20228;-75
2021/08/29 08:24:05;;;;;;;13.63;8.47;;;;;;;28.90;100.00;100371.09;5027909;28;20526;-76
2021/08/29 08:26:31;;;;;;;12.93;8.10;;;;;;;28.84;100.00;100374.69;5020117;28;20192;-75
2021/08/29 08:28:58;;;;;;;12.40;8.43;;;;;;;28.74;100.00;100371.75;5030574;28;20551;-75
2021/08/29 08:31:24;;;;;;;18.80;8.27;;;;;;;28.83;100.00;100364.13;5030736;28;20170;-75
2021/08/29 08:33:49;;;;;;;12.13;8.60;;;;;;;29.00;100.00;100371.34;5030779;28;20497;-75
2021/08/29 08:36:15;;;;;;;12.67;8.83;;;;;;;29.19;100.00;100361.25;5030254;28;20549;-77
2021/08/29 08:38:40;;;;;;;11.03;8.60;;;;;;;29.16;100.00;100361.72;5030559;28;20610;-75
2021/08/29 08:41:06;;;;;;;11.97;8.37;;;;;;;29.36;100.00;100360.56;5027647;28;20589;-76
2021/08/29 08:43:32;;;;;;;15.27;8.90;;;;;;;29.42;100.00;100352.31;5019131;28;20276;-75
2021/08/29 08:45:58;;;;;;;14.27;9.37;;;;;;;29.49;100.00;100349.50;5030092;28;21023;-76
2021/08/29 08:48:26;;;;;;;32.00;24.00;;;;;;;29.41;100.00;100350.69;5030310;28;20672;-76
2021/08/29 08:50:52;;;;;;;10.73;8.17;;;;;;;29.55;100.00;100344.00;5030201;28;20715;-76
2021/08/29 08:53:22;;;;;;;11.70;9.00;;;;;;;29.56;100.00;100340.22;5030656;28;20921;-77
2021/08/29 08:55:50;;;;;;;13.80;8.93;;;;;;;29.60;100.00;100345.16;5030018;28;20400;-76
2021/08/29 08:58:16;;;;;;;25.50;18.10;;;;;;;29.75;100.00;100343.59;5029907;28;20741;-75
2021/08/29 09:00:44;;;;;;;12.20;8.37;;;;;;;29.76;100.00;100339.81;5030102;28;20409;-74
2021/08/29 09:03:10;;;;;;;11.57;8.87;;;;;;;29.95;100.00;100343.22;5030088;28;20451;-75
2021/08/29 09:05:37;;;;;;;32.30;10.77;;;;;;;30.11;100.00;100330.81;5030254;28;20408;-75
2021/08/29 09:08:03;;;;;;;17.57;8.63;;;;;;;30.24;100.00;100329.72;5030174;28;20176;-75
2021/08/29 09:10:29;;;;;;;14.13;8.33;;;;;;;30.24;100.00;100327.81;5029954;28;20420;-75
2021/08/29 09:13:03;;;;;;;11.80;8.20;;;;;;;30.37;100.00;100322.09;5029735;28;20448;-76
2021/08/29 09:15:30;;;;;;;13.30;9.40;;;;;;;30.34;100.00;100317.16;5029629;28;20173;-79
2021/08/29 09:17:56;;;;;;;14.70;11.33;;;;;;;30.51;100.00;100321.78;5030155;28;20463;-74
2021/08/29 09:20:26;;;;;;;12.87;9.30;;;;;;;30.51;100.00;100319.06;5029777;28;20838;-76
2021/08/29 09:23:12;;;;;;;9.60;8.43;;;;;;;30.57;100.00;100315.41;5029885;28;20420;-74
2021/08/29 09:25:43;;;;;;;17.73;10.50;;;;;;;30.52;100.00;100323.44;5011959;28;20424;-76
2021/08/29 09:28:11;;;;;;;13.80;8.97;;;;;;;30.32;100.00;100313.06;5029888;28;20470;-76
2021/08/29 09:30:41;;;;;;;12.63;9.00;;;;;;;30.36;100.00;100311.50;5029287;28;20419;-76
2021/08/29 09:33:07;;;;;;;11.87;8.50;;;;;;;30.48;100.00;100308.72;5029432;28;20547;-75
2021/08/29 09:35:35;;;;;;;15.00;9.17;;;;;;;30.69;100.00;100304.53;5029731;28;20424;-75
2021/08/29 09:38:06;;;;;;;15.33;7.90;;;;;;;30.68;100.00;100298.25;5023952;28;20229;-75
2021/08/29 09:40:36;;;;;;;12.83;8.53;;;;;;;30.52;100.00;100305.25;5021911;28;20412;-75
2021/08/29 09:43:03;;;;;;;14.30;9.13;;;;;;;30.83;100.00;100297.66;5029853;28;20971;-75
2021/08/29 09:45:32;;;;;;;14.40;9.57;;;;;;;30.89;100.00;100296.69;5029715;28;20400;-75
2021/08/29 09:48:06;;;;;;;10.40;9.30;;;;;;;31.01;100.00;100305.56;5029186;28;20412;-76
2021/08/29 09:50:35;;;;;;;10.33;7.70;;;;;;;31.02;100.00;100299.06;5029582;28;20954;-75
2021/08/29 09:53:04;;;;;;;9.87;7.53;;;;;;;31.04;100.00;100293.38;5026808;28;20511;-76
2021/08/29 09:55:41;;;;;;;10.70;7.80;;;;;;;30.94;100.00;100296.78;5018820;28;20412;-76
2021/08/29 09:58:31;;;;;;;9.97;8.00;;;;;;;31.10;100.00;100295.94;5029254;28;20565;-75
2021/08/29 10:01:12;;;;;;;14.57;8.13;;;;;;;31.32;100.00;100290.59;5029036;28;21026;-76
2021/08/29 10:03:40;;;;;;;14.00;9.53;;;;;;;31.47;100.00;100289.97;5028954;28;20400;-75
2021/08/29 10:06:16;;;;;;;11.47;7.90;;;;;;;31.63;100.00;100291.81;5029648;28;20913;-74
2021/08/29 10:08:55;;;;;;;13.23;9.03;;;;;;;31.41;100.00;100294.50;5028732;28;20416;-75
2021/08/29 10:11:22;;;;;;;12.27;8.17;;;;;;;31.41;100.00;100289.06;5029365;28;20408;-76
2021/08/29 10:13:50;;;;;;;12.70;9.00;;;;;;;31.26;100.00;100285.31;5031346;28;20533;-76
2021/08/29 10:16:17;;;;;;;14.47;8.47;;;;;;;31.20;100.00;100284.41;5032693;28;20466;-76
2021/08/29 10:18:46;;;;;;;17.13;8.90;;;;;;;31.18;100.00;100289.25;5032989;28;20867;-75
2021/08/29 10:21:27;;;;;;;15.43;9.30;;;;;;;31.25;100.00;100279.06;5032782;28;20527;-76
2021/08/29 10:23:56;;;;;;;12.23;8.33;;;;;;;31.26;100.00;100288.03;5032553;28;20416;-76
2021/08/29 10:26:24;;;;;;;15.23;9.07;;;;;;;31.43;100.00;100283.38;5014358;28;20416;-75
2021/08/29 10:29:00;;;;;;;13.50;8.90;;;;;;;31.59;100.00;100282.53;5032576;28;20412;-77
2021/08/29 10:31:33;;;;;;;12.63;9.30;;;;;;;31.71;100.00;100280.50;5032404;28;20904;-77
2021/08/29 10:34:00;;;;;;;9.90;8.40;;;;;;;31.74;100.00;100284.59;5032330;28;20444;-78
2021/08/29 10:36:26;;;;;;;11.80;8.53;;;;;;;32.16;100.00;100275.84;5032297;28;20400;-77
2021/08/29 10:38:52;;;;;;;9.17;7.50;;;;;;;32.37;100.00;100271.47;5032343;28;20858;-76
2021/08/29 10:41:22;;;;;;;8.80;7.40;;;;;;;32.72;100.00;100269.06;5032212;28;20412;-75
2021/08/29 10:43:52;;;;;;;10.27;7.60;;;;;;;32.82;100.00;100257.44;5032244;28;20204;-75
2021/08/29 10:46:19;;;;;;;9.10;7.97;;;;;;;32.41;100.00;100270.69;5013971;28;20444;-75
2021/08/29 10:48:48;;;;;;;14.33;8.30;;;;;;;32.49;100.00;100269.38;5032530;28;20420;-75
2021/08/29 10:51:17;;;;;;;10.20;7.37;;;;;;;32.61;100.00;100277.41;5032226;28;20435;-75
2021/08/29 10:53:51;;;;;;;10.60;8.40;;;;;;;33.44;100.00;100266.84;5031426;28;20467;-75
2021/08/29 10:56:19;;;;;;;11.70;8.00;;;;;;;33.33;100.00;100263.22;5031713;28;20444;-76
2021/08/29 10:58:48;;;;;;;11.90;8.50;;;;;;;32.64;100.00;100268.69;5032148;28;20417;-76
2021/08/29 11:01:39;;;;;;;18.90;9.43;;;;;;;32.33;100.00;100275.78;5031506;28;20404;-74
2021/08/29 11:04:17;;;;;;;13.20;8.10;;;;;;;33.68;100.00;100259.84;5032429;28;20413;-76
2021/08/29 11:06:59;;;;;;;10.00;8.40;;;;;;;34.74;100.00;100258.41;5032122;28;20801;-75